sensor_id;sensor_type;location;lat;lon;timestamp;P1;durP1;ratioP1;P2;durP2;ratioP2
40729;SDS011;26418;50.070;8.436;2023-11-21T00:02:20;4.63;;;1.88;;
40729;SDS011;26418;50.070;8.436;2023-11-21T00:04:47;4.18;;;1.60;;
40729;SDS011;26418;50.070;8.436;2023-11-21T00:07:13;4.60;;;2.03;;
40729;SDS011;26418;50.070;8.436;2023-11-21T00:09:40;5.18;;;1.40;;
40729;SDS011;26418;50.070;8.436;2023-11-21T00:12:06;3.63;;;1.92;;
40729;SDS011;26418;50.070;8.436;2023-11-21T00:14:37;7.15;;;2.17;;
40729;SDS011;26418;50.070;8.436;2023-11-21T00:17:03;5.80;;;2.58;;
40729;SDS011;26418;50.070;8.436;2023-11-21T00:19:30;6.30;;;2.90;;
40729;SDS011;26418;50.070;8.436;2023-11-21T00:21:56;4.18;;;2.08;;
40729;SDS011;26418;50.070;8.436;2023-11-21T00:24:23;5.97;;;2.63;;
40729;SDS011;26418;50.070;8.436;2023-11-21T00:26:50;6.93;;;3.00;;
40729;SDS011;26418;50.070;8.436;2023-11-21T00:29:16;5.63;;;2.72;;
40729;SDS011;26418;50.070;8.436;2023-11-21T00:31:43;6.32;;;2.80;;
40729;SDS011;26418;50.070;8.436;2023-11-21T00:34:11;6.90;;;2.88;;
40729;SDS011;26418;50.070;8.436;2023-11-21T00:36:37;8.73;;;3.33;;
40729;SDS011;26418;50.070;8.436;2023-11-21T00:39:02;4.57;;;2.85;;
40729;SDS011;26418;50.070;8.436;2023-11-21T00:41:29;9.20;;;3.10;;
40729;SDS011;26418;50.070;8.436;2023-11-21T00:43:54;3.72;;;2.50;;
40729;SDS011;26418;50.070;8.436;2023-11-21T00:46:20;8.10;;;3.03;;
40729;SDS011;26418;50.070;8.436;2023-11-21T00:48:46;4.35;;;2.33;;
40729;SDS011;26418;50.070;8.436;2023-11-21T00:51:11;4.10;;;2.50;;
40729;SDS011;26418;50.070;8.436;2023-11-21T00:53:37;3.42;;;2.45;;
40729;SDS011;26418;50.070;8.436;2023-11-21T00:56:02;3.47;;;1.90;;
40729;SDS011;26418;50.070;8.436;2023-11-21T00:58:28;3.72;;;2.72;;
40729;SDS011;26418;50.070;8.436;2023-11-21T01:00:55;4.25;;;2.45;;
40729;SDS011;26418;50.070;8.436;2023-11-21T01:03:21;4.50;;;2.67;;
40729;SDS011;26418;50.070;8.436;2023-11-21T01:05:46;4.68;;;2.50;;
40729;SDS011;26418;50.070;8.436;2023-11-21T01:08:14;4.95;;;2.97;;
40729;SDS011;26418;50.070;8.436;2023-11-21T01:10:40;4.63;;;2.83;;
40729;SDS011;26418;50.070;8.436;2023-11-21T01:13:06;4.95;;;3.05;;
40729;SDS011;26418;50.070;8.436;2023-11-21T01:15:32;5.43;;;2.80;;
40729;SDS011;26418;50.070;8.436;2023-11-21T01:17:58;6.43;;;2.92;;
40729;SDS011;26418;50.070;8.436;2023-11-21T01:20:24;7.60;;;3.22;;
40729;SDS011;26418;50.070;8.436;2023-11-21T01:22:50;6.32;;;3.25;;
40729;SDS011;26418;50.070;8.436;2023-11-21T01:25:15;5.07;;;2.22;;
40729;SDS011;26418;50.070;8.436;2023-11-21T01:27:41;5.85;;;2.50;;
40729;SDS011;26418;50.070;8.436;2023-11-21T01:30:08;3.60;;;2.85;;
40729;SDS011;26418;50.070;8.436;2023-11-21T01:32:35;4.88;;;2.97;;
40729;SDS011;26418;50.070;8.436;2023-11-21T01:35:01;3.83;;;2.75;;
40729;SDS011;26418;50.070;8.436;2023-11-21T01:37:27;4.20;;;2.58;;
40729;SDS011;26418;50.070;8.436;2023-11-21T01:39:55;3.78;;;2.75;;
40729;SDS011;26418;50.070;8.436;2023-11-21T01:42:21;4.15;;;3.00;;
40729;SDS011;26418;50.070;8.436;2023-11-21T01:44:47;5.40;;;3.53;;
40729;SDS011;26418;50.070;8.436;2023-11-21T01:47:13;6.93;;;3.83;;
40729;SDS011;26418;50.070;8.436;2023-11-21T01:49:39;7.40;;;3.75;;
40729;SDS011;26418;50.070;8.436;2023-11-21T01:52:05;4.53;;;3.40;;
40729;SDS011;26418;50.070;8.436;2023-11-21T01:54:31;5.18;;;3.40;;
40729;SDS011;26418;50.070;8.436;2023-11-21T01:57:00;3.88;;;3.10;;
40729;SDS011;26418;50.070;8.436;2023-11-21T01:59:29;4.55;;;3.33;;
40729;SDS011;26418;50.070;8.436;2023-11-21T02:01:59;5.90;;;4.25;;
40729;SDS011;26418;50.070;8.436;2023-11-21T02:04:25;6.57;;;4.50;;
40729;SDS011;26418;50.070;8.436;2023-11-21T02:06:51;6.85;;;4.88;;
40729;SDS011;26418;50.070;8.436;2023-11-21T02:09:17;6.18;;;4.32;;
40729;SDS011;26418;50.070;8.436;2023-11-21T02:11:43;7.70;;;4.45;;
40729;SDS011;26418;50.070;8.436;2023-11-21T02:14:10;7.05;;;4.13;;
40729;SDS011;26418;50.070;8.436;2023-11-21T02:16:36;3.85;;;3.17;;
40729;SDS011;26418;50.070;8.436;2023-11-21T02:19:02;5.10;;;3.67;;
40729;SDS011;26418;50.070;8.436;2023-11-21T02:21:34;6.75;;;3.58;;
40729;SDS011;26418;50.070;8.436;2023-11-21T02:24:01;4.15;;;2.78;;
40729;SDS011;26418;50.070;8.436;2023-11-21T02:26:26;7.00;;;3.30;;
40729;SDS011;26418;50.070;8.436;2023-11-21T02:28:52;4.30;;;2.80;;
40729;SDS011;26418;50.070;8.436;2023-11-21T02:31:18;4.57;;;3.35;;
40729;SDS011;26418;50.070;8.436;2023-11-21T02:33:44;4.78;;;3.55;;
40729;SDS011;26418;50.070;8.436;2023-11-21T02:36:09;5.25;;;3.72;;
40729;SDS011;26418;50.070;8.436;2023-11-21T02:38:35;8.90;;;4.35;;
40729;SDS011;26418;50.070;8.436;2023-11-21T02:41:00;6.68;;;4.20;;
40729;SDS011;26418;50.070;8.436;2023-11-21T02:43:26;7.00;;;4.25;;
40729;SDS011;26418;50.070;8.436;2023-11-21T02:45:51;8.50;;;5.07;;
40729;SDS011;26418;50.070;8.436;2023-11-21T02:48:17;5.60;;;4.25;;
40729;SDS011;26418;50.070;8.436;2023-11-21T02:50:42;6.25;;;4.55;;
40729;SDS011;26418;50.070;8.436;2023-11-21T02:53:08;6.72;;;4.63;;
40729;SDS011;26418;50.070;8.436;2023-11-21T02:55:35;7.95;;;4.45;;
40729;SDS011;26418;50.070;8.436;2023-11-21T02:58:02;7.78;;;5.25;;
40729;SDS011;26418;50.070;8.436;2023-11-21T03:00:31;8.90;;;5.97;;
40729;SDS011;26418;50.070;8.436;2023-11-21T03:02:56;12.52;;;6.43;;
40729;SDS011;26418;50.070;8.436;2023-11-21T03:05:22;9.85;;;6.38;;
40729;SDS011;26418;50.070;8.436;2023-11-21T03:07:48;10.98;;;6.82;;
40729;SDS011;26418;50.070;8.436;2023-11-21T03:10:13;12.85;;;7.03;;
40729;SDS011;26418;50.070;8.436;2023-11-21T03:12:39;10.90;;;6.50;;
40729;SDS011;26418;50.070;8.436;2023-11-21T03:15:05;9.23;;;5.97;;
40729;SDS011;26418;50.070;8.436;2023-11-21T03:17:32;13.98;;;7.05;;
40729;SDS011;26418;50.070;8.436;2023-11-21T03:19:59;10.35;;;6.80;;
40729;SDS011;26418;50.070;8.436;2023-11-21T03:22:25;10.80;;;6.22;;
40729;SDS011;26418;50.070;8.436;2023-11-21T03:24:51;8.38;;;5.95;;
40729;SDS011;26418;50.070;8.436;2023-11-21T03:27:18;9.35;;;6.53;;
40729;SDS011;26418;50.070;8.436;2023-11-21T03:29:44;15.23;;;7.05;;
40729;SDS011;26418;50.070;8.436;2023-11-21T03:32:11;11.88;;;6.80;;
40729;SDS011;26418;50.070;8.436;2023-11-21T03:34:42;11.05;;;6.57;;
40729;SDS011;26418;50.070;8.436;2023-11-21T03:37:19;14.23;;;6.15;;
40729;SDS011;26418;50.070;8.436;2023-11-21T03:39:46;10.43;;;6.28;;
40729;SDS011;26418;50.070;8.436;2023-11-21T03:42:12;11.73;;;6.68;;
40729;SDS011;26418;50.070;8.436;2023-11-21T03:44:37;12.55;;;7.53;;
40729;SDS011;26418;50.070;8.436;2023-11-21T03:47:03;9.90;;;6.85;;
40729;SDS011;26418;50.070;8.436;2023-11-21T03:49:29;10.55;;;7.07;;
40729;SDS011;26418;50.070;8.436;2023-11-21T03:51:54;10.73;;;7.57;;
40729;SDS011;26418;50.070;8.436;2023-11-21T03:54:21;11.95;;;7.40;;
40729;SDS011;26418;50.070;8.436;2023-11-21T03:56:46;10.23;;;6.90;;
40729;SDS011;26418;50.070;8.436;2023-11-21T03:59:12;10.27;;;6.90;;
40729;SDS011;26418;50.070;8.436;2023-11-21T04:01:37;13.07;;;6.95;;
40729;SDS011;26418;50.070;8.436;2023-11-21T04:04:03;11.65;;;7.10;;
40729;SDS011;26418;50.070;8.436;2023-11-21T04:06:29;15.18;;;7.93;;
40729;SDS011;26418;50.070;8.436;2023-11-21T04:08:55;11.80;;;7.90;;
40729;SDS011;26418;50.070;8.436;2023-11-21T04:11:20;14.63;;;8.48;;
40729;SDS011;26418;50.070;8.436;2023-11-21T04:13:46;12.88;;;8.18;;
40729;SDS011;26418;50.070;8.436;2023-11-21T04:16:12;11.15;;;7.95;;
40729;SDS011;26418;50.070;8.436;2023-11-21T04:18:38;9.75;;;6.95;;
40729;SDS011;26418;50.070;8.436;2023-11-21T04:21:04;12.27;;;7.00;;
40729;SDS011;26418;50.070;8.436;2023-11-21T04:23:31;9.75;;;6.30;;
40729;SDS011;26418;50.070;8.436;2023-11-21T04:25:59;9.40;;;5.55;;
40729;SDS011;26418;50.070;8.436;2023-11-21T04:28:27;9.40;;;5.72;;
40729;SDS011;26418;50.070;8.436;2023-11-21T04:30:53;8.23;;;5.70;;
40729;SDS011;26418;50.070;8.436;2023-11-21T04:33:18;9.93;;;5.28;;
40729;SDS011;26418;50.070;8.436;2023-11-21T04:35:44;8.73;;;5.28;;
40729;SDS011;26418;50.070;8.436;2023-11-21T04:38:10;8.00;;;4.55;;
40729;SDS011;26418;50.070;8.436;2023-11-21T04:40:35;9.05;;;4.93;;
40729;SDS011;26418;50.070;8.436;2023-11-21T04:43:01;7.50;;;4.70;;
40729;SDS011;26418;50.070;8.436;2023-11-21T04:45:27;7.28;;;5.28;;
40729;SDS011;26418;50.070;8.436;2023-11-21T04:47:52;7.65;;;5.32;;
40729;SDS011;26418;50.070;8.436;2023-11-21T04:50:18;7.18;;;5.38;;
40729;SDS011;26418;50.070;8.436;2023-11-21T04:52:44;8.52;;;5.32;;
40729;SDS011;26418;50.070;8.436;2023-11-21T04:55:09;8.57;;;5.68;;
40729;SDS011;26418;50.070;8.436;2023-11-21T04:57:36;9.60;;;6.38;;
40729;SDS011;26418;50.070;8.436;2023-11-21T05:00:02;7.65;;;5.05;;
40729;SDS011;26418;50.070;8.436;2023-11-21T05:02:31;9.27;;;5.60;;
40729;SDS011;26418;50.070;8.436;2023-11-21T05:04:59;8.75;;;4.65;;
40729;SDS011;26418;50.070;8.436;2023-11-21T05:07:25;5.55;;;4.07;;
40729;SDS011;26418;50.070;8.436;2023-11-21T05:09:54;7.38;;;4.75;;
40729;SDS011;26418;50.070;8.436;2023-11-21T05:12:21;7.65;;;4.63;;
40729;SDS011;26418;50.070;8.436;2023-11-21T05:14:48;6.18;;;4.63;;
40729;SDS011;26418;50.070;8.436;2023-11-21T05:17:14;8.15;;;4.47;;
40729;SDS011;26418;50.070;8.436;2023-11-21T05:19:39;5.10;;;3.97;;
40729;SDS011;26418;50.070;8.436;2023-11-21T05:22:06;5.75;;;3.70;;
40729;SDS011;26418;50.070;8.436;2023-11-21T05:24:33;9.90;;;4.78;;
40729;SDS011;26418;50.070;8.436;2023-11-21T05:26:58;5.93;;;4.07;;
40729;SDS011;26418;50.070;8.436;2023-11-21T05:29:24;5.57;;;4.03;;
40729;SDS011;26418;50.070;8.436;2023-11-21T05:31:50;5.63;;;3.70;;
40729;SDS011;26418;50.070;8.436;2023-11-21T05:34:18;7.15;;;4.28;;
40729;SDS011;26418;50.070;8.436;2023-11-21T05:36:43;4.68;;;3.08;;
40729;SDS011;26418;50.070;8.436;2023-11-21T05:39:11;4.85;;;3.28;;
40729;SDS011;26418;50.070;8.436;2023-11-21T05:41:37;4.32;;;2.95;;
40729;SDS011;26418;50.070;8.436;2023-11-21T05:44:02;4.95;;;3.00;;
40729;SDS011;26418;50.070;8.436;2023-11-21T05:46:28;5.40;;;3.20;;
40729;SDS011;26418;50.070;8.436;2023-11-21T05:48:53;3.13;;;2.58;;
40729;SDS011;26418;50.070;8.436;2023-11-21T05:51:20;4.25;;;2.95;;
40729;SDS011;26418;50.070;8.436;2023-11-21T05:53:45;5.70;;;3.42;;
40729;SDS011;26418;50.070;8.436;2023-11-21T05:56:11;5.85;;;3.42;;
40729;SDS011;26418;50.070;8.436;2023-11-21T05:58:38;5.63;;;2.85;;
40729;SDS011;26418;50.070;8.436;2023-11-21T06:01:05;6.00;;;3.08;;
40729;SDS011;26418;50.070;8.436;2023-11-21T06:03:32;3.83;;;2.70;;
40729;SDS011;26418;50.070;8.436;2023-11-21T06:05:58;5.63;;;3.13;;
40729;SDS011;26418;50.070;8.436;2023-11-21T06:08:24;4.13;;;2.53;;
40729;SDS011;26418;50.070;8.436;2023-11-21T06:10:49;4.30;;;2.75;;
40729;SDS011;26418;50.070;8.436;2023-11-21T06:13:15;5.97;;;2.63;;
40729;SDS011;26418;50.070;8.436;2023-11-21T06:15:41;3.55;;;2.60;;
40729;SDS011;26418;50.070;8.436;2023-11-21T06:18:07;4.88;;;3.03;;
40729;SDS011;26418;50.070;8.436;2023-11-21T06:20:35;4.07;;;2.70;;
40729;SDS011;26418;50.070;8.436;2023-11-21T06:23:02;5.78;;;3.08;;
40729;SDS011;26418;50.070;8.436;2023-11-21T06:25:28;4.35;;;3.40;;
40729;SDS011;26418;50.070;8.436;2023-11-21T06:27:54;4.55;;;2.63;;
40729;SDS011;26418;50.070;8.436;2023-11-21T06:30:20;4.22;;;2.97;;
40729;SDS011;26418;50.070;8.436;2023-11-21T06:32:46;4.22;;;2.60;;
40729;SDS011;26418;50.070;8.436;2023-11-21T06:35:12;5.85;;;3.35;;
40729;SDS011;26418;50.070;8.436;2023-11-21T06:37:38;7.10;;;2.47;;
40729;SDS011;26418;50.070;8.436;2023-11-21T06:40:04;6.40;;;2.92;;
40729;SDS011;26418;50.070;8.436;2023-11-21T06:42:31;6.53;;;3.88;;
40729;SDS011;26418;50.070;8.436;2023-11-21T06:44:58;5.68;;;2.70;;
40729;SDS011;26418;50.070;8.436;2023-11-21T06:47:24;4.43;;;2.22;;
40729;SDS011;26418;50.070;8.436;2023-11-21T06:49:51;8.55;;;2.30;;
40729;SDS011;26418;50.070;8.436;2023-11-21T06:52:18;7.70;;;2.60;;
40729;SDS011;26418;50.070;8.436;2023-11-21T06:54:44;7.15;;;3.05;;
40729;SDS011;26418;50.070;8.436;2023-11-21T06:57:10;9.32;;;3.95;;
40729;SDS011;26418;50.070;8.436;2023-11-21T06:59:36;6.75;;;3.47;;
40729;SDS011;26418;50.070;8.436;2023-11-21T07:02:01;7.05;;;3.40;;
40729;SDS011;26418;50.070;8.436;2023-11-21T07:04:27;7.25;;;3.60;;
40729;SDS011;26418;50.070;8.436;2023-11-21T07:06:53;4.53;;;2.95;;
40729;SDS011;26418;50.070;8.436;2023-11-21T07:09:19;6.25;;;3.03;;
40729;SDS011;26418;50.070;8.436;2023-11-21T07:11:47;8.93;;;3.53;;
40729;SDS011;26418;50.070;8.436;2023-11-21T07:14:14;5.95;;;3.45;;
40729;SDS011;26418;50.070;8.436;2023-11-21T07:16:40;4.97;;;2.20;;
40729;SDS011;26418;50.070;8.436;2023-11-21T07:19:05;6.43;;;2.60;;
40729;SDS011;26418;50.070;8.436;2023-11-21T07:21:35;2.95;;;2.60;;
40729;SDS011;26418;50.070;8.436;2023-11-21T07:24:01;4.28;;;2.55;;
40729;SDS011;26418;50.070;8.436;2023-11-21T07:26:31;7.18;;;3.03;;
40729;SDS011;26418;50.070;8.436;2023-11-21T07:28:58;3.53;;;2.38;;
40729;SDS011;26418;50.070;8.436;2023-11-21T07:31:24;6.15;;;2.65;;
40729;SDS011;26418;50.070;8.436;2023-11-21T07:33:50;10.07;;;3.30;;
40729;SDS011;26418;50.070;8.436;2023-11-21T07:36:16;6.15;;;2.40;;
40729;SDS011;26418;50.070;8.436;2023-11-21T07:38:48;3.83;;;2.50;;
40729;SDS011;26418;50.070;8.436;2023-11-21T07:41:14;3.72;;;2.58;;
40729;SDS011;26418;50.070;8.436;2023-11-21T07:43:40;6.68;;;2.70;;
40729;SDS011;26418;50.070;8.436;2023-11-21T07:46:06;4.97;;;2.83;;
40729;SDS011;26418;50.070;8.436;2023-11-21T07:48:33;5.63;;;3.15;;
40729;SDS011;26418;50.070;8.436;2023-11-21T07:50:59;4.10;;;2.83;;
40729;SDS011;26418;50.070;8.436;2023-11-21T07:53:26;9.60;;;3.45;;
40729;SDS011;26418;50.070;8.436;2023-11-21T07:56:13;3.88;;;2.85;;
40729;SDS011;26418;50.070;8.436;2023-11-21T07:58:38;6.63;;;2.38;;
40729;SDS011;26418;50.070;8.436;2023-11-21T08:01:04;5.43;;;2.97;;
40729;SDS011;26418;50.070;8.436;2023-11-21T08:03:30;3.67;;;2.30;;
40729;SDS011;26418;50.070;8.436;2023-11-21T08:05:56;5.50;;;2.50;;
40729;SDS011;26418;50.070;8.436;2023-11-21T08:08:22;3.67;;;2.63;;
40729;SDS011;26418;50.070;8.436;2023-11-21T08:10:49;4.55;;;2.17;;
40729;SDS011;26418;50.070;8.436;2023-11-21T08:13:24;2.97;;;2.30;;
40729;SDS011;26418;50.070;8.436;2023-11-21T08:15:59;2.95;;;2.28;;
40729;SDS011;26418;50.070;8.436;2023-11-21T08:18:28;3.42;;;1.88;;
40729;SDS011;26418;50.070;8.436;2023-11-21T08:20:56;4.63;;;2.75;;
40729;SDS011;26418;50.070;8.436;2023-11-21T08:23:22;6.28;;;3.10;;
40729;SDS011;26418;50.070;8.436;2023-11-21T08:25:54;5.38;;;3.08;;
40729;SDS011;26418;50.070;8.436;2023-11-21T08:28:20;4.13;;;2.90;;
40729;SDS011;26418;50.070;8.436;2023-11-21T08:30:51;4.57;;;2.70;;
40729;SDS011;26418;50.070;8.436;2023-11-21T08:33:19;5.95;;;2.72;;
40729;SDS011;26418;50.070;8.436;2023-11-21T08:35:44;5.47;;;2.70;;
40729;SDS011;26418;50.070;8.436;2023-11-21T08:38:11;3.17;;;1.92;;
40729;SDS011;26418;50.070;8.436;2023-11-21T08:40:37;3.55;;;2.28;;
40729;SDS011;26418;50.070;8.436;2023-11-21T08:43:02;5.18;;;2.60;;
40729;SDS011;26418;50.070;8.436;2023-11-21T08:45:29;4.95;;;2.47;;
40729;SDS011;26418;50.070;8.436;2023-11-21T08:47:56;7.30;;;2.80;;
40729;SDS011;26418;50.070;8.436;2023-11-21T08:50:21;5.35;;;2.75;;
40729;SDS011;26418;50.070;8.436;2023-11-21T08:52:47;7.40;;;2.92;;
40729;SDS011;26418;50.070;8.436;2023-11-21T08:55:13;7.47;;;2.95;;
40729;SDS011;26418;50.070;8.436;2023-11-21T08:57:39;3.83;;;2.63;;
40729;SDS011;26418;50.070;8.436;2023-11-21T09:00:07;6.07;;;2.20;;
40729;SDS011;26418;50.070;8.436;2023-11-21T09:02:36;3.58;;;2.10;;
40729;SDS011;26418;50.070;8.436;2023-11-21T09:05:05;2.58;;;2.17;;
40729;SDS011;26418;50.070;8.436;2023-11-21T09:07:32;4.90;;;2.50;;
40729;SDS011;26418;50.070;8.436;2023-11-21T09:09:57;4.38;;;2.35;;
40729;SDS011;26418;50.070;8.436;2023-11-21T09:12:23;3.10;;;2.20;;
40729;SDS011;26418;50.070;8.436;2023-11-21T09:14:52;2.83;;;2.10;;
40729;SDS011;26418;50.070;8.436;2023-11-21T09:17:18;9.73;;;2.25;;
40729;SDS011;26418;50.070;8.436;2023-11-21T09:19:44;2.97;;;2.08;;
40729;SDS011;26418;50.070;8.436;2023-11-21T09:22:12;4.22;;;2.15;;
40729;SDS011;26418;50.070;8.436;2023-11-21T09:24:37;4.32;;;2.13;;
40729;SDS011;26418;50.070;8.436;2023-11-21T09:27:03;2.95;;;1.65;;
40729;SDS011;26418;50.070;8.436;2023-11-21T09:29:30;2.97;;;1.70;;
40729;SDS011;26418;50.070;8.436;2023-11-21T09:31:57;3.80;;;2.25;;
40729;SDS011;26418;50.070;8.436;2023-11-21T09:34:26;2.72;;;1.70;;
40729;SDS011;26418;50.070;8.436;2023-11-21T09:36:52;4.20;;;1.80;;
40729;SDS011;26418;50.070;8.436;2023-11-21T09:39:18;6.55;;;2.20;;
40729;SDS011;26418;50.070;8.436;2023-11-21T09:41:46;4.70;;;2.10;;
40729;SDS011;26418;50.070;8.436;2023-11-21T09:44:17;8.18;;;2.17;;
40729;SDS011;26418;50.070;8.436;2023-11-21T09:46:47;3.47;;;2.20;;
40729;SDS011;26418;50.070;8.436;2023-11-21T09:49:14;4.10;;;2.00;;
40729;SDS011;26418;50.070;8.436;2023-11-21T09:51:42;4.13;;;2.05;;
40729;SDS011;26418;50.070;8.436;2023-11-21T09:54:09;10.75;;;2.47;;
40729;SDS011;26418;50.070;8.436;2023-11-21T09:56:39;7.63;;;2.53;;
40729;SDS011;26418;50.070;8.436;2023-11-21T09:59:05;4.85;;;2.28;;
40729;SDS011;26418;50.070;8.436;2023-11-21T10:01:34;5.03;;;1.90;;
40729;SDS011;26418;50.070;8.436;2023-11-21T10:04:02;4.18;;;2.22;;
40729;SDS011;26418;50.070;8.436;2023-11-21T10:06:28;4.13;;;2.10;;
40729;SDS011;26418;50.070;8.436;2023-11-21T10:08:55;6.40;;;2.20;;
40729;SDS011;26418;50.070;8.436;2023-11-21T10:11:24;9.48;;;2.75;;
40729;SDS011;26418;50.070;8.436;2023-11-21T10:13:54;4.03;;;2.10;;
40729;SDS011;26418;50.070;8.436;2023-11-21T10:16:22;8.57;;;3.03;;
40729;SDS011;26418;50.070;8.436;2023-11-21T10:18:51;6.40;;;3.00;;
40729;SDS011;26418;50.070;8.436;2023-11-21T10:21:20;7.93;;;3.05;;
40729;SDS011;26418;50.070;8.436;2023-11-21T10:23:46;7.20;;;3.45;;
40729;SDS011;26418;50.070;8.436;2023-11-21T10:26:12;6.05;;;3.25;;
40729;SDS011;26418;50.070;8.436;2023-11-21T10:28:54;8.75;;;3.35;;
40729;SDS011;26418;50.070;8.436;2023-11-21T10:31:24;6.95;;;2.88;;
40729;SDS011;26418;50.070;8.436;2023-11-21T10:33:52;10.77;;;2.85;;
40729;SDS011;26418;50.070;8.436;2023-11-21T10:36:25;5.50;;;3.30;;
40729;SDS011;26418;50.070;8.436;2023-11-21T10:38:52;5.18;;;2.80;;
40729;SDS011;26418;50.070;8.436;2023-11-21T10:41:19;5.97;;;3.10;;
40729;SDS011;26418;50.070;8.436;2023-11-21T10:43:45;7.25;;;3.28;;
40729;SDS011;26418;50.070;8.436;2023-11-21T10:46:11;8.48;;;3.50;;
40729;SDS011;26418;50.070;8.436;2023-11-21T10:48:37;7.78;;;2.95;;
40729;SDS011;26418;50.070;8.436;2023-11-21T10:51:06;5.05;;;2.25;;
40729;SDS011;26418;50.070;8.436;2023-11-21T10:53:32;4.25;;;2.42;;
40729;SDS011;26418;50.070;8.436;2023-11-21T10:56:05;6.93;;;2.63;;
40729;SDS011;26418;50.070;8.436;2023-11-21T10:58:33;3.95;;;2.28;;
40729;SDS011;26418;50.070;8.436;2023-11-21T11:01:02;4.25;;;2.38;;
40729;SDS011;26418;50.070;8.436;2023-11-21T11:03:31;8.07;;;3.20;;
40729;SDS011;26418;50.070;8.436;2023-11-21T11:05:58;5.18;;;2.30;;
40729;SDS011;26418;50.070;8.436;2023-11-21T11:08:25;6.30;;;2.40;;
40729;SDS011;26418;50.070;8.436;2023-11-21T11:10:52;5.82;;;2.03;;
40729;SDS011;26418;50.070;8.436;2023-11-21T11:13:18;8.05;;;2.35;;
40729;SDS011;26418;50.070;8.436;2023-11-21T11:15:47;4.93;;;2.30;;
40729;SDS011;26418;50.070;8.436;2023-11-21T11:18:13;6.85;;;2.65;;
40729;SDS011;26418;50.070;8.436;2023-11-21T11:20:39;5.95;;;1.95;;
40729;SDS011;26418;50.070;8.436;2023-11-21T11:26:19;4.85;;;2.08;;
40729;SDS011;26418;50.070;8.436;2023-11-21T11:31:27;5.50;;;2.47;;
40729;SDS011;26418;50.070;8.436;2023-11-21T11:34:12;6.07;;;2.95;;
40729;SDS011;26418;50.070;8.436;2023-11-21T11:36:49;5.47;;;2.88;;
40729;SDS011;26418;50.070;8.436;2023-11-21T11:39:37;5.15;;;2.25;;
40729;SDS011;26418;50.070;8.436;2023-11-21T11:42:07;6.88;;;2.38;;
40729;SDS011;26418;50.070;8.436;2023-11-21T11:47:22;4.60;;;2.53;;
40729;SDS011;26418;50.070;8.436;2023-11-21T11:50:02;2.92;;;1.95;;
40729;SDS011;26418;50.070;8.436;2023-11-21T11:52:54;5.43;;;2.25;;
40729;SDS011;26418;50.070;8.436;2023-11-21T11:55:36;3.08;;;2.13;;
40729;SDS011;26418;50.070;8.436;2023-11-21T11:58:04;5.38;;;2.40;;
40729;SDS011;26418;50.070;8.436;2023-11-21T12:00:34;6.65;;;2.33;;
40729;SDS011;26418;50.070;8.436;2023-11-21T12:03:06;3.60;;;1.63;;
40729;SDS011;26418;50.070;8.436;2023-11-21T12:05:34;9.57;;;2.40;;
40729;SDS011;26418;50.070;8.436;2023-11-21T12:08:04;7.88;;;2.13;;
40729;SDS011;26418;50.070;8.436;2023-11-21T12:10:32;3.40;;;2.47;;
40729;SDS011;26418;50.070;8.436;2023-11-21T12:13:01;4.05;;;1.98;;
40729;SDS011;26418;50.070;8.436;2023-11-21T12:15:28;9.23;;;2.70;;
40729;SDS011;26418;50.070;8.436;2023-11-21T12:17:57;5.22;;;2.60;;
40729;SDS011;26418;50.070;8.436;2023-11-21T12:20:25;6.88;;;2.33;;
40729;SDS011;26418;50.070;8.436;2023-11-21T12:22:53;6.53;;;2.60;;
40729;SDS011;26418;50.070;8.436;2023-11-21T12:25:21;6.90;;;2.65;;
40729;SDS011;26418;50.070;8.436;2023-11-21T12:27:49;10.60;;;2.85;;
40729;SDS011;26418;50.070;8.436;2023-11-21T12:30:17;4.38;;;2.47;;
40729;SDS011;26418;50.070;8.436;2023-11-21T12:32:44;5.43;;;2.22;;
40729;SDS011;26418;50.070;8.436;2023-11-21T12:35:13;5.43;;;2.20;;
40729;SDS011;26418;50.070;8.436;2023-11-21T12:37:39;4.93;;;2.13;;
40729;SDS011;26418;50.070;8.436;2023-11-21T12:40:08;4.50;;;2.25;;
40729;SDS011;26418;50.070;8.436;2023-11-21T12:42:37;6.20;;;2.25;;
40729;SDS011;26418;50.070;8.436;2023-11-21T12:47:45;5.40;;;2.78;;
40729;SDS011;26418;50.070;8.436;2023-11-21T12:50:13;4.47;;;2.33;;
40729;SDS011;26418;50.070;8.436;2023-11-21T12:52:44;7.15;;;3.10;;
40729;SDS011;26418;50.070;8.436;2023-11-21T12:55:18;5.22;;;3.00;;
40729;SDS011;26418;50.070;8.436;2023-11-21T12:57:49;3.63;;;2.47;;
40729;SDS011;26418;50.070;8.436;2023-11-21T13:00:18;9.00;;;2.75;;
40729;SDS011;26418;50.070;8.436;2023-11-21T13:02:52;8.27;;;2.88;;
40729;SDS011;26418;50.070;8.436;2023-11-21T13:05:35;5.88;;;3.17;;
40729;SDS011;26418;50.070;8.436;2023-11-21T13:08:15;7.60;;;3.03;;
40729;SDS011;26418;50.070;8.436;2023-11-21T13:10:45;6.38;;;2.60;;
40729;SDS011;26418;50.070;8.436;2023-11-21T13:13:12;4.88;;;2.90;;
40729;SDS011;26418;50.070;8.436;2023-11-21T13:15:51;5.03;;;3.60;;
40729;SDS011;26418;50.070;8.436;2023-11-21T13:18:18;5.40;;;2.65;;
40729;SDS011;26418;50.070;8.436;2023-11-21T13:20:46;4.60;;;2.30;;
40729;SDS011;26418;50.070;8.436;2023-11-21T13:23:12;4.25;;;2.47;;
40729;SDS011;26418;50.070;8.436;2023-11-21T13:25:38;3.88;;;2.30;;
40729;SDS011;26418;50.070;8.436;2023-11-21T13:28:06;6.32;;;2.97;;
40729;SDS011;26418;50.070;8.436;2023-11-21T13:30:32;4.43;;;2.45;;
40729;SDS011;26418;50.070;8.436;2023-11-21T13:33:04;7.65;;;2.63;;
40729;SDS011;26418;50.070;8.436;2023-11-21T13:35:35;7.20;;;2.60;;
40729;SDS011;26418;50.070;8.436;2023-11-21T13:40:35;10.32;;;3.05;;
40729;SDS011;26418;50.070;8.436;2023-11-21T13:43:17;4.30;;;2.42;;
40729;SDS011;26418;50.070;8.436;2023-11-21T13:45:46;6.40;;;2.47;;
40729;SDS011;26418;50.070;8.436;2023-11-21T13:48:12;5.40;;;2.72;;
40729;SDS011;26418;50.070;8.436;2023-11-21T13:50:47;5.15;;;2.90;;
40729;SDS011;26418;50.070;8.436;2023-11-21T13:53:24;4.18;;;2.60;;
40729;SDS011;26418;50.070;8.436;2023-11-21T13:58:19;4.97;;;2.67;;
40729;SDS011;26418;50.070;8.436;2023-11-21T14:00:48;4.63;;;2.28;;
40729;SDS011;26418;50.070;8.436;2023-11-21T14:03:21;3.28;;;1.90;;
40729;SDS011;26418;50.070;8.436;2023-11-21T14:06:02;5.35;;;2.35;;
40729;SDS011;26418;50.070;8.436;2023-11-21T14:08:34;4.90;;;2.67;;
40729;SDS011;26418;50.070;8.436;2023-11-21T14:10:59;3.65;;;2.42;;
40729;SDS011;26418;50.070;8.436;2023-11-21T14:13:27;4.97;;;2.72;;
40729;SDS011;26418;50.070;8.436;2023-11-21T14:15:53;6.38;;;3.10;;
40729;SDS011;26418;50.070;8.436;2023-11-21T14:18:29;7.03;;;3.45;;
40729;SDS011;26418;50.070;8.436;2023-11-21T14:21:04;7.57;;;3.90;;
40729;SDS011;26418;50.070;8.436;2023-11-21T14:23:31;8.23;;;4.38;;
40729;SDS011;26418;50.070;8.436;2023-11-21T14:25:58;7.60;;;4.05;;
40729;SDS011;26418;50.070;8.436;2023-11-21T14:28:26;19.95;;;5.68;;
40729;SDS011;26418;50.070;8.436;2023-11-21T14:30:51;10.60;;;5.60;;
40729;SDS011;26418;50.070;8.436;2023-11-21T14:33:17;9.18;;;4.70;;
40729;SDS011;26418;50.070;8.436;2023-11-21T14:35:48;10.52;;;5.85;;
40729;SDS011;26418;50.070;8.436;2023-11-21T14:38:15;9.93;;;5.35;;
40729;SDS011;26418;50.070;8.436;2023-11-21T14:40:41;12.13;;;5.63;;
40729;SDS011;26418;50.070;8.436;2023-11-21T14:43:06;12.32;;;5.82;;
40729;SDS011;26418;50.070;8.436;2023-11-21T14:45:33;10.82;;;6.10;;
40729;SDS011;26418;50.070;8.436;2023-11-21T14:47:59;12.13;;;5.93;;
40729;SDS011;26418;50.070;8.436;2023-11-21T14:50:27;13.43;;;6.05;;
40729;SDS011;26418;50.070;8.436;2023-11-21T14:53:02;16.67;;;5.80;;
40729;SDS011;26418;50.070;8.436;2023-11-21T14:55:31;10.00;;;5.10;;
40729;SDS011;26418;50.070;8.436;2023-11-21T14:58:06;9.38;;;5.15;;
40729;SDS011;26418;50.070;8.436;2023-11-21T15:00:35;12.80;;;6.20;;
40729;SDS011;26418;50.070;8.436;2023-11-21T15:03:01;12.27;;;6.07;;
40729;SDS011;26418;50.070;8.436;2023-11-21T15:05:28;12.63;;;6.05;;